createdAt,value
2017-12-31T00:00:56.204Z,4.60
2017-12-31T00:03:23.347Z,3.63
2017-12-31T00:05:50.401Z,3.90
2017-12-31T00:08:17.630Z,4.23
2017-12-31T00:10:43.996Z,4.40
2017-12-31T00:13:10.235Z,4.63
2017-12-31T00:15:37.263Z,4.50
2017-12-31T00:18:03.539Z,5.50
2017-12-31T00:20:29.792Z,5.30
2017-12-31T00:22:56.636Z,4.43
2017-12-31T00:25:23.121Z,4.20
2017-12-31T00:27:49.803Z,5.13
2017-12-31T00:30:17.586Z,6.50
2017-12-31T00:32:44.556Z,4.10
2017-12-31T00:35:10.989Z,4.77
2017-12-31T00:37:38.088Z,3.97
2017-12-31T00:40:04.364Z,4.63
2017-12-31T00:42:31.408Z,5.47
2017-12-31T00:44:57.779Z,4.30
2017-12-31T00:47:24.682Z,4.20
2017-12-31T00:52:24.907Z,4.17
2017-12-31T00:54:51.145Z,4.30
2017-12-31T00:57:17.476Z,4.00
2017-12-31T00:59:43.848Z,4.03
2017-12-31T01:02:10.909Z,3.70
2017-12-31T01:04:37.892Z,4.20
2017-12-31T01:07:04.513Z,4.77
2017-12-31T01:09:31.334Z,5.07
2017-12-31T01:11:59.088Z,4.90
2017-12-31T01:14:27.016Z,5.90
2017-12-31T01:16:54.155Z,5.63
2017-12-31T01:22:06.595Z,4.87
2017-12-31T01:24:32.872Z,3.90
2017-12-31T01:27:00.356Z,4.50
2017-12-31T01:29:27.252Z,4.33
2017-12-31T01:31:53.523Z,4.90
2017-12-31T01:34:20.417Z,4.67
2017-12-31T01:36:46.697Z,4.60
2017-12-31T01:39:12.920Z,4.77
2017-12-31T01:41:39.139Z,4.70
2017-12-31T01:44:05.408Z,4.90
2017-12-31T01:46:31.618Z,4.87
2017-12-31T01:49:02.027Z,4.70
2017-12-31T01:51:29.316Z,4.33
2017-12-31T01:53:55.565Z,4.20
2017-12-31T01:56:21.849Z,4.23
2017-12-31T01:58:48.813Z,5.47
2017-12-31T02:01:15.119Z,3.93
2017-12-31T02:03:41.377Z,5.33
2017-12-31T02:06:08.323Z,5.93
2017-12-31T02:08:34.903Z,4.10
2017-12-31T02:11:01.116Z,4.80
2017-12-31T02:13:27.541Z,5.57
2017-12-31T02:15:54.163Z,4.10
2017-12-31T02:18:21.120Z,5.07
2017-12-31T02:20:48.143Z,5.00
2017-12-31T02:23:14.385Z,4.70
2017-12-31T02:25:40.660Z,4.67
2017-12-31T02:28:07.638Z,5.20
2017-12-31T02:30:34.863Z,5.47
2017-12-31T02:33:01.817Z,5.77
2017-12-31T02:35:29.031Z,5.00
2017-12-31T02:37:55.348Z,5.43
2017-12-31T02:40:22.397Z,4.37
2017-12-31T02:42:49.759Z,4.77
2017-12-31T02:45:16.021Z,3.97
2017-12-31T02:47:42.263Z,6.20
2017-12-31T02:50:09.409Z,4.93
2017-12-31T02:52:35.636Z,4.50
2017-12-31T02:55:01.883Z,6.10
2017-12-31T02:57:28.198Z,4.77
2017-12-31T02:59:54.459Z,6.77
2017-12-31T03:02:20.933Z,5.80
2017-12-31T03:04:48.168Z,6.20
2017-12-31T03:07:14.404Z,4.17
2017-12-31T03:09:42.223Z,3.60
2017-12-31T03:12:08.824Z,7.10
2017-12-31T03:14:36.136Z,6.00
2017-12-31T03:17:02.438Z,5.10
2017-12-31T03:19:28.699Z,4.50
2017-12-31T03:21:54.943Z,5.53
2017-12-31T03:24:21.173Z,4.87
2017-12-31T03:26:47.558Z,5.83
2017-12-31T03:29:14.535Z,5.50
2017-12-31T03:31:41.858Z,4.63
2017-12-31T03:34:08.902Z,4.47
2017-12-31T03:36:35.146Z,6.07
2017-12-31T03:39:01.369Z,6.40
2017-12-31T03:41:27.613Z,5.30
2017-12-31T03:43:54.746Z,4.33
2017-12-31T03:46:20.992Z,5.20
2017-12-31T03:48:48.327Z,3.97
2017-12-31T03:51:14.648Z,4.60
2017-12-31T03:53:40.921Z,5.40
2017-12-31T03:56:07.292Z,5.47
2017-12-31T03:58:33.583Z,4.83
2017-12-31T04:01:00.709Z,5.80
2017-12-31T04:03:27.465Z,6.03
2017-12-31T04:05:53.750Z,5.30
2017-12-31T04:08:20.681Z,5.83
2017-12-31T04:10:47.690Z,5.57
2017-12-31T04:13:15.793Z,4.03
2017-12-31T04:15:43.852Z,4.97
2017-12-31T04:18:10.329Z,5.73
2017-12-31T04:20:38.092Z,5.33
2017-12-31T04:23:04.314Z,5.17
2017-12-31T04:25:30.814Z,5.07
2017-12-31T04:27:57.858Z,5.40
2017-12-31T04:30:24.845Z,5.50
2017-12-31T04:32:51.828Z,4.60
2017-12-31T04:37:55.828Z,4.80
2017-12-31T04:40:22.105Z,3.93
2017-12-31T04:42:48.367Z,4.83
2017-12-31T04:45:15.381Z,4.73
2017-12-31T04:47:41.596Z,5.70
2017-12-31T04:50:08.288Z,3.90
2017-12-31T04:52:35.296Z,4.73
2017-12-31T04:55:01.566Z,5.33
2017-12-31T04:57:27.803Z,4.33
2017-12-31T04:59:54.417Z,4.30
2017-12-31T05:02:20.975Z,4.43
2017-12-31T05:04:48.169Z,5.47
2017-12-31T05:07:15.253Z,4.90
2017-12-31T05:09:41.514Z,4.00
2017-12-31T05:12:07.834Z,4.60
2017-12-31T05:14:34.391Z,4.90
2017-12-31T05:17:02.039Z,5.40
2017-12-31T05:19:28.276Z,5.20
2017-12-31T05:21:55.250Z,3.80
2017-12-31T05:24:21.665Z,4.13
2017-12-31T05:26:48.249Z,4.63
2017-12-31T05:29:15.449Z,5.03
2017-12-31T05:31:41.959Z,4.30
2017-12-31T05:34:09.536Z,5.87
2017-12-31T05:36:36.813Z,5.23
2017-12-31T05:39:04.089Z,4.20
2017-12-31T05:41:30.360Z,4.13
2017-12-31T05:43:57.208Z,5.17
2017-12-31T05:46:24.777Z,5.00
2017-12-31T05:48:51.778Z,6.40
2017-12-31T05:51:18.029Z,4.50
2017-12-31T05:53:44.269Z,4.23
2017-12-31T05:56:10.744Z,4.93
2017-12-31T05:58:37.036Z,6.53
2017-12-31T06:01:03.307Z,5.57
2017-12-31T06:03:29.540Z,4.90
2017-12-31T06:05:57.340Z,4.60
2017-12-31T06:08:24.358Z,4.07
2017-12-31T06:10:50.745Z,5.07
2017-12-31T06:13:16.999Z,4.10
2017-12-31T06:15:43.228Z,4.80
2017-12-31T06:18:09.558Z,4.30
2017-12-31T06:20:35.804Z,4.77
2017-12-31T06:23:02.269Z,5.20
2017-12-31T06:25:28.548Z,4.80
2017-12-31T06:27:55.829Z,4.47
2017-12-31T06:30:22.036Z,5.10
2017-12-31T06:32:49.016Z,6.00
2017-12-31T06:35:17.957Z,4.40
2017-12-31T06:37:51.711Z,4.83
2017-12-31T06:40:18.031Z,5.03
2017-12-31T06:42:45.204Z,5.23
2017-12-31T06:45:12.444Z,5.97
2017-12-31T06:47:39.498Z,5.03
2017-12-31T06:50:06.496Z,4.33
2017-12-31T06:52:32.839Z,4.20
2017-12-31T06:54:59.144Z,5.57
2017-12-31T06:57:26.786Z,5.47
2017-12-31T06:59:53.756Z,5.30
2017-12-31T07:02:20.840Z,5.43
2017-12-31T07:04:47.428Z,4.43
2017-12-31T07:13:23.482Z,4.97
2017-12-31T07:15:50.103Z,5.40
2017-12-31T07:18:16.536Z,5.13
2017-12-31T07:20:43.584Z,5.37
2017-12-31T07:23:09.946Z,5.03
2017-12-31T07:25:36.361Z,4.87
2017-12-31T07:28:03.594Z,5.40
2017-12-31T07:30:29.890Z,5.00
2017-12-31T07:32:56.941Z,4.77
2017-12-31T07:35:23.284Z,5.70
2017-12-31T07:37:49.897Z,4.67
2017-12-31T07:40:25.953Z,5.77
2017-12-31T07:42:52.458Z,5.70
2017-12-31T07:45:22.185Z,4.80
2017-12-31T07:47:49.692Z,5.27
2017-12-31T07:50:17.957Z,5.07
2017-12-31T07:52:44.689Z,5.87
2017-12-31T07:55:11.905Z,6.57
2017-12-31T08:00:33.331Z,5.77
2017-12-31T08:03:00.796Z,5.80
2017-12-31T08:05:27.806Z,5.97
2017-12-31T08:07:54.139Z,6.00
2017-12-31T08:10:20.401Z,6.43
2017-12-31T08:12:46.681Z,6.00
2017-12-31T08:15:13.757Z,4.70
2017-12-31T08:17:45.966Z,6.90
2017-12-31T08:20:13.503Z,6.53
2017-12-31T08:22:41.136Z,6.10
2017-12-31T08:25:07.629Z,7.67
2017-12-31T08:30:16.634Z,7.23
2017-12-31T08:35:55.314Z,6.70
2017-12-31T08:38:22.557Z,7.10
2017-12-31T08:40:48.851Z,8.70
2017-12-31T08:43:15.196Z,7.70
2017-12-31T08:45:42.546Z,7.47
2017-12-31T08:48:10.132Z,6.60
2017-12-31T08:50:44.753Z,6.10
2017-12-31T08:53:11.597Z,6.90
2017-12-31T08:55:56.609Z,6.90
2017-12-31T08:58:23.954Z,7.10
2017-12-31T09:01:02.188Z,6.53
2017-12-31T09:03:29.285Z,6.80
2017-12-31T09:05:56.589Z,5.93
2017-12-31T09:08:23.412Z,7.40
2017-12-31T10:29:23.524Z,9.90
2017-12-31T10:31:50.047Z,9.03
2017-12-31T10:34:17.198Z,8.93
2017-12-31T10:36:43.611Z,9.70
2017-12-31T10:39:10.602Z,8.70
2017-12-31T10:41:36.851Z,8.83
2017-12-31T10:44:03.433Z,8.17
2017-12-31T10:46:30.565Z,8.40
2017-12-31T10:48:57.792Z,7.80
2017-12-31T10:51:27.229Z,6.20
2017-12-31T10:53:55.229Z,5.43
2017-12-31T10:56:21.940Z,5.23
2017-12-31T10:58:48.293Z,5.17
2017-12-31T11:01:14.546Z,4.77
2017-12-31T11:03:43.610Z,5.10
2017-12-31T11:06:09.916Z,5.03
2017-12-31T11:08:36.181Z,6.87
2017-12-31T11:11:02.435Z,5.33
2017-12-31T11:13:28.727Z,5.97
2017-12-31T11:15:56.393Z,4.70
2017-12-31T11:18:22.693Z,3.70
2017-12-31T11:20:49.714Z,4.70
2017-12-31T11:23:17.089Z,4.43
2017-12-31T11:25:43.368Z,4.73
2017-12-31T11:28:09.902Z,4.17
2017-12-31T11:30:36.307Z,4.10
2017-12-31T11:33:02.609Z,5.13
2017-12-31T11:35:30.238Z,3.90
2017-12-31T11:37:58.853Z,3.50
2017-12-31T11:40:26.639Z,3.80
2017-12-31T11:42:52.989Z,3.70
2017-12-31T11:45:20.089Z,4.20
2017-12-31T11:47:46.369Z,3.60
2017-12-31T11:50:12.664Z,5.90
2017-12-31T11:52:39.609Z,5.10
2017-12-31T11:55:05.928Z,4.30
2017-12-31T11:57:32.952Z,4.87
2017-12-31T11:59:59.356Z,4.63
2017-12-31T12:02:26.112Z,3.80
2017-12-31T12:04:52.629Z,4.50
2017-12-31T12:07:22.074Z,4.33
2017-12-31T12:09:49.136Z,3.83
2017-12-31T12:12:15.539Z,5.30
2017-12-31T12:14:41.987Z,5.57
2017-12-31T12:17:08.732Z,11.67
2017-12-31T12:19:35.733Z,4.40
2017-12-31T12:22:01.975Z,4.17
2017-12-31T12:24:28.333Z,4.67
2017-12-31T12:26:56.058Z,7.53
2017-12-31T12:29:22.341Z,6.57
2017-12-31T12:31:49.523Z,9.30
2017-12-31T12:36:42.174Z,5.97
2017-12-31T12:39:08.375Z,4.50
2017-12-31T12:41:34.569Z,4.50
2017-12-31T12:44:00.773Z,5.30
2017-12-31T12:46:26.944Z,5.37
2017-12-31T12:48:53.120Z,5.10
2017-12-31T12:51:19.327Z,7.03
2017-12-31T12:53:45.504Z,4.67
2017-12-31T12:56:11.673Z,5.00
2017-12-31T12:58:37.867Z,4.20
2017-12-31T13:01:04.044Z,4.63
2017-12-31T13:03:30.215Z,4.07
2017-12-31T13:05:56.411Z,6.30
2017-12-31T13:08:22.568Z,6.70
2017-12-31T13:10:48.740Z,5.73
2017-12-31T13:13:14.958Z,4.57
2017-12-31T13:15:41.134Z,4.40
2017-12-31T13:18:08.092Z,5.70
2017-12-31T13:20:34.272Z,5.27
2017-12-31T13:23:00.441Z,4.83
2017-12-31T13:25:27.356Z,4.90
2017-12-31T13:27:53.543Z,4.90
2017-12-31T13:30:19.702Z,4.73
2017-12-31T13:32:45.966Z,4.17
2017-12-31T13:35:12.151Z,4.30
2017-12-31T13:37:38.308Z,4.50
2017-12-31T13:40:04.495Z,5.30
2017-12-31T13:42:31.587Z,4.83
2017-12-31T13:44:57.760Z,4.23
2017-12-31T13:47:23.924Z,4.63
2017-12-31T13:49:50.831Z,11.73
2017-12-31T13:52:16.984Z,5.60
2017-12-31T13:54:43.158Z,4.37
2017-12-31T13:57:09.628Z,7.23
2017-12-31T13:59:35.791Z,5.17
2017-12-31T14:02:01.973Z,4.53
2017-12-31T14:04:29.779Z,6.50
2017-12-31T14:06:55.947Z,7.50
2017-12-31T14:09:22.864Z,6.57
2017-12-31T14:11:49.046Z,7.23
2017-12-31T14:14:15.207Z,7.37
2017-12-31T14:16:41.364Z,7.57
2017-12-31T14:19:07.547Z,7.30
2017-12-31T14:21:33.718Z,7.67
2017-12-31T14:23:59.896Z,53.90
2017-12-31T14:26:26.808Z,9.97
2017-12-31T14:28:52.979Z,7.40
2017-12-31T14:31:19.888Z,11.63
2017-12-31T14:33:46.154Z,8.30
2017-12-31T14:36:13.069Z,8.77
2017-12-31T14:38:39.252Z,8.20
2017-12-31T14:41:05.440Z,7.37
2017-12-31T14:43:31.612Z,9.83
2017-12-31T14:45:57.831Z,37.90
2017-12-31T14:48:24.750Z,12.97
2017-12-31T14:50:50.932Z,9.43
2017-12-31T14:53:17.837Z,8.97
2017-12-31T14:55:44.774Z,9.63
2017-12-31T14:58:10.931Z,8.93
2017-12-31T15:00:37.128Z,8.23
2017-12-31T15:03:03.355Z,9.80
2017-12-31T15:05:29.515Z,8.23
2017-12-31T15:07:55.692Z,8.70
2017-12-31T15:10:22.607Z,8.97
2017-12-31T15:12:48.767Z,11.20
2017-12-31T15:15:15.689Z,8.60
2017-12-31T15:17:41.894Z,8.13
2017-12-31T15:20:08.097Z,7.40
2017-12-31T15:22:34.981Z,8.60
2017-12-31T15:25:01.161Z,7.47
2017-12-31T15:27:28.796Z,8.33
2017-12-31T15:29:54.976Z,21.63
2017-12-31T15:32:21.889Z,7.40
2017-12-31T15:34:48.887Z,10.23
2017-12-31T15:37:15.800Z,8.47
2017-12-31T15:39:42.009Z,11.10
2017-12-31T15:42:08.189Z,377.97
2017-12-31T15:44:35.129Z,47.13
2017-12-31T15:47:02.092Z,13.43
2017-12-31T15:49:29.003Z,20.33
2017-12-31T15:51:55.195Z,9.47
2017-12-31T15:54:21.396Z,9.83
2017-12-31T15:56:47.575Z,8.80
2017-12-31T15:59:13.748Z,7.00
2017-12-31T16:01:40.014Z,7.40
2017-12-31T16:04:06.221Z,9.10
2017-12-31T16:06:32.380Z,9.80
2017-12-31T16:08:58.579Z,9.70
2017-12-31T16:11:24.764Z,8.20
2017-12-31T16:13:50.955Z,8.57
2017-12-31T16:16:17.123Z,9.50
2017-12-31T16:18:43.316Z,9.87
2017-12-31T16:21:10.982Z,10.57
2017-12-31T16:23:37.147Z,11.93
2017-12-31T16:26:04.068Z,14.80
2017-12-31T16:28:31.005Z,17.77
2017-12-31T16:30:57.203Z,8.70
2017-12-31T16:33:23.384Z,11.43
2017-12-31T16:35:50.387Z,44.03
2017-12-31T16:38:16.582Z,16.90
2017-12-31T16:40:43.497Z,9.47
2017-12-31T16:43:09.708Z,9.10
2017-12-31T16:45:35.895Z,11.97
2017-12-31T16:48:02.088Z,13.40
2017-12-31T16:50:28.267Z,10.73
2017-12-31T16:52:55.200Z,8.67
2017-12-31T16:55:21.456Z,7.97
2017-12-31T16:57:47.650Z,6.67
2017-12-31T17:00:13.824Z,6.67
2017-12-31T17:02:40.772Z,6.20
2017-12-31T17:05:06.946Z,7.60
2017-12-31T17:07:33.173Z,8.90
2017-12-31T17:09:59.366Z,7.50
2017-12-31T17:12:25.544Z,12.13
2017-12-31T17:14:51.787Z,12.90
2017-12-31T17:17:17.976Z,14.80
2017-12-31T17:19:45.624Z,17.33
2017-12-31T17:22:11.823Z,16.27
2017-12-31T17:24:38.008Z,24.50
2017-12-31T17:27:04.190Z,33.00
2017-12-31T17:29:30.404Z,35.90
2017-12-31T17:31:57.307Z,40.40
2017-12-31T17:34:23.488Z,40.53
2017-12-31T17:36:49.764Z,35.13
2017-12-31T17:39:15.944Z,34.23
2017-12-31T17:41:42.111Z,27.77
2017-12-31T17:44:08.303Z,66.40
2017-12-31T17:46:34.490Z,505.33
2017-12-31T17:49:00.664Z,141.10
2017-12-31T17:51:27.608Z,32.50
2017-12-31T17:53:53.771Z,24.27
2017-12-31T17:56:20.689Z,22.97
2017-12-31T17:58:46.882Z,15.70
2017-12-31T18:01:13.053Z,21.50
2017-12-31T18:03:39.248Z,26.40
2017-12-31T18:06:05.443Z,43.10
2017-12-31T18:08:32.393Z,40.50
2017-12-31T18:10:59.317Z,36.90
2017-12-31T18:13:25.496Z,25.23
2017-12-31T18:15:52.407Z,29.57
2017-12-31T18:18:18.571Z,31.07
2017-12-31T18:20:45.507Z,33.40
2017-12-31T18:23:11.669Z,29.90
2017-12-31T18:25:37.846Z,21.20
2017-12-31T18:28:04.035Z,20.20
2017-12-31T18:30:30.209Z,15.70
2017-12-31T18:32:56.384Z,15.10
2017-12-31T18:35:23.308Z,18.27
2017-12-31T18:37:50.280Z,25.83
2017-12-31T18:40:17.183Z,18.10
2017-12-31T18:42:43.365Z,18.80
2017-12-31T18:45:09.540Z,22.67
2017-12-31T18:47:35.707Z,23.20
2017-12-31T18:50:01.900Z,28.43
2017-12-31T18:52:28.064Z,35.50
2017-12-31T18:54:54.239Z,41.10
2017-12-31T18:57:21.173Z,46.53
2017-12-31T18:59:47.347Z,43.97
2017-12-31T19:02:13.516Z,34.90
2017-12-31T19:04:39.716Z,34.00
2017-12-31T19:07:05.881Z,41.03
2017-12-31T19:09:32.055Z,40.57
2017-12-31T19:11:58.994Z,55.40
2017-12-31T19:14:25.907Z,48.87
2017-12-31T19:16:52.083Z,35.07
2017-12-31T19:19:18.999Z,32.53
2017-12-31T19:21:45.223Z,29.90
2017-12-31T19:24:11.373Z,104.93
2017-12-31T19:26:37.568Z,130.67
2017-12-31T19:29:03.736Z,112.10
2017-12-31T19:31:29.913Z,61.03
2017-12-31T19:33:56.852Z,54.50
2017-12-31T19:36:23.759Z,36.17
2017-12-31T19:38:50.016Z,35.23
2017-12-31T19:41:16.207Z,33.50
2017-12-31T19:43:42.387Z,61.83
2017-12-31T19:46:08.560Z,63.63
2017-12-31T19:48:34.774Z,75.57
2017-12-31T19:51:01.723Z,139.93
2017-12-31T19:53:28.647Z,96.90
2017-12-31T19:55:54.838Z,64.73
2017-12-31T19:58:21.024Z,49.37
2017-12-31T20:00:48.707Z,34.27
2017-12-31T20:03:15.640Z,31.67
2017-12-31T20:05:41.820Z,26.80
2017-12-31T20:08:07.983Z,38.10
2017-12-31T20:10:34.181Z,31.03
2017-12-31T20:13:00.355Z,30.10
2017-12-31T20:15:26.531Z,31.87
2017-12-31T20:17:53.470Z,22.77
2017-12-31T20:20:20.372Z,21.97
2017-12-31T20:22:46.556Z,19.37
2017-12-31T20:25:13.488Z,20.60
2017-12-31T20:27:39.647Z,18.07
2017-12-31T20:30:06.592Z,16.23
2017-12-31T20:32:33.526Z,16.50
2017-12-31T20:35:01.187Z,16.70
2017-12-31T20:37:27.380Z,17.43
2017-12-31T20:39:53.935Z,15.10
2017-12-31T20:42:20.115Z,18.67
2017-12-31T20:44:47.035Z,17.07
2017-12-31T20:47:13.245Z,20.67
2017-12-31T20:49:39.423Z,24.80
2017-12-31T20:52:06.327Z,23.97
2017-12-31T20:54:32.532Z,20.13
2017-12-31T20:56:58.704Z,23.20
2017-12-31T20:59:24.895Z,91.03
2017-12-31T21:01:51.817Z,365.40
2017-12-31T21:04:18.029Z,250.70
2017-12-31T21:06:44.211Z,292.60
2017-12-31T21:09:11.140Z,262.33
2017-12-31T21:11:37.311Z,396.73
2017-12-31T21:14:03.492Z,223.47
2017-12-31T21:16:29.684Z,590.17
2017-12-31T21:18:55.870Z,187.70
2017-12-31T21:21:22.809Z,47.10
2017-12-31T21:23:49.034Z,42.90
2017-12-31T21:26:15.206Z,35.67
2017-12-31T21:28:42.136Z,38.60
2017-12-31T21:31:09.094Z,36.07
2017-12-31T21:33:36.025Z,33.83
2017-12-31T21:36:02.200Z,32.13
2017-12-31T21:38:29.115Z,37.50
2017-12-31T21:40:55.376Z,41.50
2017-12-31T21:43:22.281Z,49.50
2017-12-31T21:45:48.480Z,61.87
2017-12-31T21:48:14.660Z,80.17
2017-12-31T21:50:40.825Z,90.07
2017-12-31T21:53:07.783Z,100.83
2017-12-31T21:55:34.700Z,149.90
2017-12-31T21:58:00.912Z,313.70
2017-12-31T22:00:27.091Z,103.20
2017-12-31T22:02:53.252Z,73.33
2017-12-31T22:05:19.412Z,52.17
2017-12-31T22:07:45.592Z,42.33
2017-12-31T22:10:12.500Z,40.63
2017-12-31T22:12:38.685Z,56.33
2017-12-31T22:15:05.606Z,52.37
2017-12-31T22:17:31.796Z,161.00
2017-12-31T22:19:57.981Z,254.63
2017-12-31T22:22:24.903Z,188.47
2017-12-31T22:24:51.073Z,87.40
2017-12-31T22:27:18.000Z,42.43
2017-12-31T22:29:44.198Z,31.00
2017-12-31T22:32:10.367Z,28.57
2017-12-31T22:34:36.549Z,27.67
2017-12-31T22:37:02.747Z,26.50
2017-12-31T22:39:28.923Z,37.43
2017-12-31T22:41:55.218Z,30.80
2017-12-31T22:44:22.147Z,25.70
2017-12-31T22:46:48.340Z,30.70
2017-12-31T22:49:14.527Z,33.40
2017-12-31T22:51:40.731Z,65.20
2017-12-31T22:54:06.947Z,87.87
2017-12-31T22:56:33.112Z,331.63
2017-12-31T22:58:59.300Z,353.53
2017-12-31T23:01:25.499Z,308.53
2017-12-31T23:03:51.664Z,427.07
2017-12-31T23:06:18.586Z,388.70
2017-12-31T23:08:45.524Z,558.57
2017-12-31T23:11:11.723Z,653.37
2017-12-31T23:13:37.928Z,601.93
2017-12-31T23:16:04.112Z,772.10
2017-12-31T23:18:31.043Z,564.40
2017-12-31T23:20:57.234Z,537.93
2017-12-31T23:23:24.141Z,579.57
2017-12-31T23:25:50.362Z,500.87
2017-12-31T23:28:16.586Z,593.30
2017-12-31T23:30:42.764Z,456.80
2017-12-31T23:33:08.921Z,326.90
2017-12-31T23:35:35.852Z,275.30
2017-12-31T23:38:02.024Z,253.63
2017-12-31T23:40:28.200Z,232.23
2017-12-31T23:42:54.488Z,214.70
2017-12-31T23:45:21.413Z,239.67
2017-12-31T23:47:48.348Z,265.13
2017-12-31T23:50:15.396Z,247.93
2017-12-31T23:52:41.580Z,222.87
2017-12-31T23:55:08.496Z,201.17
2017-12-31T23:57:34.717Z,219.97
